Time;durP1;ratioP1;P1;durP2;ratioP2;P2;SDS_P1;SDS_P2;PMS_P1;PMS_P2;Temp;Humidity;BMP_temperature;BMP_pressure;BME280_temperature;BME280_humidity;BME280_pressure;Samples;Min_cycle;Max_cycle;Signal;HPM_P1;HPM_P2
2022/10/03 00:02:08;;;;;;;;;;;;;;;4.24;100.00;100545.91;4984411;28;19922;-82
2022/10/03 00:04:42;;;;;;;;;;;;;;;4.27;100.00;100552.91;4974391;28;19922;-88
2022/10/03 00:07:26;;;;;;;;;;;;;;;4.26;100.00;100554.69;4975591;28;19926;-89
2022/10/03 00:09:59;;;;;;;;;;;;;;;4.31;100.00;100565.16;4974653;28;19922;-89
2022/10/03 00:12:34;;;;;;;;;;;;;;;4.38;100.00;100566.84;4963832;28;19925;-88
2022/10/03 00:15:24;;;;;;;;;;;;;;;;;;;;;
2022/10/03 00:17:52;;;;;;;;;;;;;;;4.21;100.00;100580.03;4984378;28;19929;-90
2022/10/03 00:20:18;;;;;;;;;;;;;;;4.16;100.00;100582.72;4964349;28;20373;-89
2022/10/03 00:22:53;;;;;;;;;;;;;;;4.22;100.00;100589.66;4964805;28;19949;-87
2022/10/03 00:25:36;;;;;;;;;;;;;;;4.27;100.00;100585.25;4974364;28;19933;-87
2022/10/03 00:28:22;;;;;;;;;;;;;;;4.30;100.00;100590.50;4986038;28;19929;-87
2022/10/03 00:30:56;;;;;;;;;;;;;;;6.81;100.00;100578.53;4977231;28;20016;-86
2022/10/03 00:33:38;;;;;;;;;;;;;;;5.02;100.00;100593.59;4988132;28;20349;-86
2022/10/03 00:36:13;;;;;;;;;;;;;;;4.65;100.00;100591.22;4980729;28;19949;-90
2022/10/03 00:38:39;;;;;;;;;;;;;;;4.46;100.00;100600.94;4973173;28;19929;-85
2022/10/03 00:41:21;;;;;;;;;;;;;;;4.40;100.00;100603.59;4987869;28;20293;-87
2022/10/03 00:43:56;;;;;;;;;;;;;;;4.33;100.00;100597.50;4981103;28;20005;-89
2022/10/03 00:46:33;;;;;;;;;;;;;;;4.25;100.00;100601.91;4975292;28;20028;-90
2022/10/03 00:48:58;;;;;;;;;;;;;;;4.21;100.00;100608.03;4980538;28;19925;-86
2022/10/03 00:51:49;;;;;;;;;;;;;;;4.28;100.00;100609.78;4980944;28;20020;-90
2022/10/03 00:54:24;;;;;;;;;;;;;;;4.18;100.00;100608.94;4994550;28;19921;-86
2022/10/03 00:57:09;;;;;;;;;;;;;;;4.22;100.00;100607.16;4977649;28;19991;-85
2022/10/03 01:00:04;;;;;;;;;;;;;;;4.26;100.00;100604.53;4975770;28;19934;-89
2022/10/03 01:02:33;;;;;;;;;;;;;;;4.34;100.00;100601.84;4978366;28;20313;-85
2022/10/03 01:05:32;;;;;;;;;;;;;;;4.29;100.00;100601.00;4990821;28;19922;-91
2022/10/03 01:08:06;;;;;;;;;;;;;;;4.24;100.00;100605.41;4946398;28;19922;-90
2022/10/03 01:10:31;;;;;;;;;;;;;;;4.19;100.00;100614.16;4995612;28;19922;-86
2022/10/03 01:13:13;;;;;;;;;;;;;;;4.15;100.00;100615.06;4971993;28;20361;-87
2022/10/03 01:15:59;;;;;;;;;;;;;;;4.16;100.00;100603.69;4971946;28;20396;-84
2022/10/03 01:18:27;;;;;;;;;;;;;;;4.13;100.00;100602.81;4997387;28;19917;-86
2022/10/03 01:21:15;;;;;;;;;;;;;;;4.19;100.00;100595.78;4980611;28;20209;-88
2022/10/03 01:23:49;;;;;;;;;;;;;;;4.11;100.00;100594.94;4980621;28;19921;-86
2022/10/03 01:26:21;;;;;;;;;;;;;;;4.12;100.00;100593.22;4980923;28;19917;-89
2022/10/03 01:31:34;;;;;;;;;;;;;;;4.14;100.00;100592.31;4994872;28;19995;-88
2022/10/03 01:34:06;;;;;;;;;;;;;;;4.17;100.00;100596.69;4972966;28;20761;-89
2022/10/03 01:36:51;;;;;;;;;;;;;;;4.12;100.00;100593.22;4979901;28;19953;-87
2022/10/03 01:39:28;;;;;;;;;;;;;;;4.05;100.00;100587.09;4984786;28;19930;-86
2022/10/03 01:42:02;;;;;;;;;;;;;;;4.13;100.00;100577.47;4968180;28;19976;-88
2022/10/03 03:35:25;;;;;;;;;;;;;;;4.05;100.00;100615.94;5020384;28;19936;-81
2022/10/03 03:38:26;;;;;;;;;;;;;;;3.95;100.00;100617.72;5004195;28;19925;-80
2022/10/03 03:41:00;;;;;;;;;;;;;;;3.98;100.00;100622.09;4942643;29;19965;-81
2022/10/03 03:43:37;;;;;;;;;;;;;;;3.93;100.00;100624.72;4997968;28;19921;-81
2022/10/03 03:46:21;;;;;;;;;;;;;;;3.97;100.00;100618.63;5004445;28;19976;-81
2022/10/03 03:48:49;;;;;;;;;;;;;;;4.00;100.00;100622.97;5021273;28;20012;-80
2022/10/03 03:51:17;;;;;;;;;;;;;;;3.90;100.00;100621.25;5022531;28;19959;-81
2022/10/03 03:53:57;;;;;;;;;;;;;;;3.93;100.00;100621.25;5021955;28;19921;-79
2022/10/03 03:56:49;;;;;;;;;;;;;;;3.97;100.00;100612.47;5022290;28;20007;-79
2022/10/03 03:59:28;;;;;;;;;;;;;;;3.89;100.00;100617.72;5004609;28;19922;-79
2022/10/03 04:01:56;;;;;;;;;;;;;;;3.90;100.00;100609.00;5020174;28;19917;-81
2022/10/03 04:04:22;;;;;;;;;;;;;;;3.95;100.00;100617.72;5003772;28;19975;-81
2022/10/03 04:07:06;;;;;;;;;;;;;;;3.98;100.00;100616.84;5022195;28;19925;-80
2022/10/03 04:09:50;;;;;;;;;;;;;;;3.90;100.00;100613.38;5022542;28;19971;-81
2022/10/03 04:12:23;;;;;;;;;;;;;;;3.84;100.00;100616.00;5022251;28;19922;-80
2022/10/03 04:15:00;;;;;;;;;;;;;;;3.91;100.00;100621.25;5021445;28;20008;-81
2022/10/03 04:20:34;;;;;;;;;;;;;;;3.91;100.00;100630.84;5021970;28;19998;-80
2022/10/03 04:23:18;;;;;;;;;;;;;;;3.90;100.00;100629.97;5022224;28;20292;-80
2022/10/03 04:25:43;;;;;;;;;;;;;;;3.87;100.00;100629.97;5021997;28;19921;-80
2022/10/03 04:28:28;;;;;;;;;;;;;;;3.88;100.00;100641.34;5004177;28;19929;-80
2022/10/03 04:31:13;;;;;;;;;;;;;;;3.91;100.00;100636.97;5021395;28;19921;-80
2022/10/03 04:33:50;;;;;;;;;;;;;;;3.85;100.00;100639.59;5020062;28;19929;-80
2022/10/03 04:36:34;;;;;;;;;;;;;;;3.92;100.00;100641.31;5021474;28;20399;-81
2022/10/03 04:38:59;;;;;;;;;;;;;;;3.86;100.00;100637.84;5022068;28;20011;-81
2022/10/03 04:41:28;;;;;;;;;;;;;;;3.88;100.00;100636.09;5021991;28;20345;-81
2022/10/03 04:43:59;;;;;;;;;;;;;;;3.86;100.00;100638.75;5020799;28;19928;-80
2022/10/03 04:46:42;;;;;;;;;;;;;;;3.83;100.00;100641.38;5020953;28;20443;-81
2022/10/03 04:49:14;;;;;;;;;;;;;;;3.90;100.00;100635.22;5021670;28;19931;-80
2022/10/03 04:52:08;;;;;;;;;;;;;;;3.89;100.00;100637.84;5021817;28;20295;-80
2022/10/03 04:54:47;;;;;;;;;;;;;;;3.80;100.00;100639.63;4959940;28;20374;-80
2022/10/03 04:57:31;;;;;;;;;;;;;;;3.90;100.00;100647.47;5021848;28;20288;-80
2022/10/03 05:00:15;;;;;;;;;;;;;;;3.92;100.00;100643.09;5021875;28;19921;-80
2022/10/03 05:02:53;;;;;;;;;;;;;;;3.86;100.00;100653.59;5002569;28;19996;-80
2022/10/03 05:05:24;;;;;;;;;;;;;;;3.89;100.00;100657.06;5003759;28;19918;-80
2022/10/03 05:08:05;;;;;;;;;;;;;;;3.78;100.00;100656.22;5021408;28;19947;-80
2022/10/03 05:10:36;;;;;;;;;;;;;;;3.94;100.00;100657.06;5021541;28;20461;-79
2022/10/03 05:13:10;;;;;;;;;;;;;;;3.82;100.00;100653.59;5021638;28;19988;-80
2022/10/03 05:15:41;;;;;;;;;;;;;;;3.92;100.00;100666.69;5022619;28;20388;-80
2022/10/03 12:36:14;;;;;;;;;;;;;;;4.49;100.00;100649.03;5614448;23;19940;-88
2022/10/03 12:38:42;;;;;;;;;;;;;;;4.48;100.00;100643.78;5002286;28;20038;-89
2022/10/03 12:41:26;;;;;;;;;;;;;;;4.47;100.00;100648.16;5000951;28;19944;-89
2022/10/03 12:44:03;;;;;;;;;;;;;;;4.28;100.00;100636.00;5000695;28;20012;-89
2022/10/03 12:46:44;;;;;;;;;;;;;;;4.38;100.00;100636.84;5013961;28;19921;-90
2022/10/03 12:49:19;;;;;;;;;;;;;;;4.32;100.00;100636.00;5013137;28;19925;-87
2022/10/03 12:51:56;;;;;;;;;;;;;;;6.79;100.00;100625.09;4998963;28;19929;-92
2022/10/03 12:54:41;;;;;;;;;;;;;;;4.71;100.00;100627.94;4999939;28;19929;-88
2022/10/03 12:57:19;;;;;;;;;;;;;;;4.35;100.00;100625.47;5015777;28;19983;-89
2022/10/03 13:00:06;;;;;;;;;;;;;;;4.39;100.00;100630.69;5002829;28;19968;-91
2022/10/03 13:02:35;;;;;;;;;;;;;;;4.38;100.00;100626.34;5000190;28;20400;-88
2022/10/03 13:05:20;;;;;;;;;;;;;;;4.33;100.00;100626.38;4985334;28;20387;-87
2022/10/03 13:07:51;;;;;;;;;;;;;;;4.47;100.00;100628.94;5001157;28;19983;-88
2022/10/03 13:10:17;;;;;;;;;;;;;;;4.26;100.00;100619.38;4984780;28;19928;-88
2022/10/03 13:12:56;;;;;;;;;;;;;;;4.17;100.00;100622.91;4983897;28;19925;-88
2022/10/03 13:15:31;;;;;;;;;;;;;;;4.31;100.00;100620.25;4984214;28;20355;-88
2022/10/03 13:18:19;;;;;;;;;;;;;;;4.28;100.00;100613.25;5001307;28;19917;-87
2022/10/03 13:21:08;;;;;;;;;;;;;;;4.29;100.00;100622.88;4983326;28;19964;-89
2022/10/03 13:23:36;;;;;;;;;;;;;;;4.28;100.00;100626.38;4989116;28;19926;-88
2022/10/03 13:26:08;;;;;;;;;;;;;;;4.35;100.00;100627.22;4984153;28;19918;-88
2022/10/03 13:28:34;;;;;;;;;;;;;;;4.25;100.00;100625.53;5001611;28;19922;-88
2022/10/03 13:30:59;;;;;;;;;;;;;;;4.22;100.00;100630.78;5001950;28;19917;-88
2022/10/03 13:33:31;;;;;;;;;;;;;;;4.27;100.00;100626.38;4999897;28;19928;-88
2022/10/03 13:36:02;;;;;;;;;;;;;;;4.19;100.00;100632.50;5001530;28;19921;-88
2022/10/03 13:38:36;;;;;;;;;;;;;;;4.17;100.00;100630.78;5004617;28;19929;-89
2022/10/03 13:41:02;;;;;;;;;;;;;;;4.19;100.00;100629.88;5004211;28;20012;-89
2022/10/03 13:43:35;;;;;;;;;;;;;;;4.19;100.00;100629.88;5004583;28;19933;-89
2022/10/03 13:46:02;;;;;;;;;;;;;;;4.12;100.00;100633.41;5005597;28;19981;-89
2022/10/03 13:48:28;;;;;;;;;;;;;;;4.09;100.00;100622.94;4987629;28;19922;-89
2022/10/03 13:50:57;;;;;;;;;;;;;;;4.04;100.00;100623.81;4985905;28;20018;-90
2022/10/03 13:53:26;;;;;;;;;;;;;;;4.15;100.00;100620.31;4988019;28;19930;-89
2022/10/03 13:56:00;;;;;;;;;;;;;;;4.12;100.00;100624.69;5003657;28;19976;-89
2022/10/03 13:58:44;;;;;;;;;;;;;;;4.07;100.00;100610.69;4986824;28;20046;-88
2022/10/03 14:01:23;;;;;;;;;;;;;;;4.09;100.00;100606.34;4992582;28;19921;-88
2022/10/03 14:04:08;;;;;;;;;;;;;;;4.05;100.00;100608.06;4986105;28;19922;-89
2022/10/03 14:06:39;;;;;;;;;;;;;;;4.01;100.00;100606.34;4985313;28;19929;-89
2022/10/03 14:09:13;;;;;;;;;;;;;;;3.99;100.00;100603.75;4994986;28;19917;-88
2022/10/03 14:11:38;;;;;;;;;;;;;;;4.00;100.00;100604.59;5004360;28;19921;-88
2022/10/03 14:14:23;;;;;;;;;;;;;;;4.00;100.00;100604.59;5004215;28;19918;-88
2022/10/03 14:17:09;;;;;;;;;;;;;;;4.02;100.00;100597.63;5004395;28;19926;-89
2022/10/03 14:19:38;;;;;;;;;;;;;;;4.01;100.00;100590.63;4992080;28;20001;-88
2022/10/03 14:22:10;;;;;;;;;;;;;;;4.09;100.00;100598.47;4986989;28;19948;-89
2022/10/03 14:24:41;;;;;;;;;;;;;;;4.08;100.00;100594.09;5004725;28;19923;-88
2022/10/03 14:27:26;;;;;;;;;;;;;;;3.91;100.00;100595.03;5004503;28;19948;-91
2022/10/03 14:29:51;;;;;;;;;;;;;;;4.02;100.00;100586.25;4986729;28;19924;-89
2022/10/03 14:32:19;;;;;;;;;;;;;;;3.98;100.00;100583.63;5004984;28;19926;-89
2022/10/03 14:34:52;;;;;;;;;;;;;;;3.97;100.00;100583.63;5003483;28;19972;-88
2022/10/03 14:37:23;;;;;;;;;;;;;;;3.97;100.00;100587.16;5001836;28;19981;-90
2022/10/03 14:39:54;;;;;;;;;;;;;;;3.94;100.00;100584.53;4986590;28;20376;-88
2022/10/03 14:42:38;;;;;;;;;;;;;;;4.02;100.00;100571.41;5003600;28;20009;-88
2022/10/03 14:45:08;;;;;;;;;;;;;;;4.01;100.00;100585.38;5003958;28;20391;-88
2022/10/03 14:47:35;;;;;;;;;;;;;;;4.05;100.00;100580.97;4986750;28;20361;-88
2022/10/03 14:50:01;;;;;;;;;;;;;;;4.07;100.00;100569.63;4985987;28;19940;-88
2022/10/03 14:52:26;;;;;;;;;;;;;;;4.09;100.00;100567.00;4986806;28;19913;-88
2022/10/03 14:54:56;;;;;;;;;;;;;;;3.93;100.00;100569.66;4986223;28;19925;-88
2022/10/03 14:57:36;;;;;;;;;;;;;;;4.00;100.00;100567.88;5003787;28;19918;-89
2022/10/03 15:00:03;;;;;;;;;;;;;;;4.03;100.00;100573.13;5003897;28;19925;-88
2022/10/03 15:02:33;;;;;;;;;;;;;;;4.07;100.00;100573.97;5002697;28;19929;-89
2022/10/03 15:05:11;;;;;;;;;;;;;;;4.13;100.00;100579.19;4984547;28;19922;-88
2022/10/03 15:07:40;;;;;;;;;;;;;;;4.12;100.00;100575.72;5003546;28;19917;-88
2022/10/03 15:10:08;;;;;;;;;;;;;;;4.00;100.00;100568.78;4986709;28;20001;-89
2022/10/03 15:12:35;;;;;;;;;;;;;;;4.08;100.00;100563.47;5003249;28;19925;-88
2022/10/03 15:15:07;;;;;;;;;;;;;;;4.18;100.00;100567.81;4985779;28;20331;-88
2022/10/03 15:17:52;;;;;;;;;;;;;;;4.07;100.00;100560.84;4985789;28;19925;-88
2022/10/03 15:20:25;;;;;;;;;;;;;;;4.07;100.00;100572.25;4998845;28;20700;-88
2022/10/03 15:22:52;;;;;;;;;;;;;;;4.05;100.00;100568.72;5002211;28;19925;-87
2022/10/03 15:25:21;;;;;;;;;;;;;;;4.00;100.00;100562.63;5003575;28;19918;-88
2022/10/03 15:27:51;;;;;;;;;;;;;;;4.10;100.00;100560.84;5003202;28;19972;-91
2022/10/03 15:30:20;;;;;;;;;;;;;;;4.01;100.00;100567.03;4985169;28;19968;-88
2022/10/03 15:32:47;;;;;;;;;;;;;;;4.04;100.00;100567.00;4985678;28;20008;-88
2022/10/03 15:37:41;;;;;;;;;;;;;;;4.06;100.00;100577.50;5335878;23;19925;-89
2022/10/03 15:40:30;;;;;;;;;;;;;;;4.04;100.00;100558.25;5003199;28;19921;-88
2022/10/03 15:43:11;;;;;;;;;;;;;;;4.10;100.00;100559.13;4988379;28;19921;-88
2022/10/03 15:45:37;;;;;;;;;;;;;;;4.07;100.00;100553.88;5004211;28;19921;-88
2022/10/03 15:48:10;;;;;;;;;;;;;;;4.07;100.00;100567.00;5003781;28;20064;-88
2022/10/03 15:51:11;;;;;;;;;;;;;;;4.04;100.00;100564.38;5019658;28;20055;-88
2022/10/03 15:53:38;;;;;;;;;;;;;;;4.01;100.00;100569.63;4923688;29;19927;-88
2022/10/03 15:56:14;;;;;;;;;;;;;;;4.07;100.00;100567.00;5002967;28;19925;-88
2022/10/03 15:58:50;;;;;;;;;;;;;;;4.06;100.00;100562.63;5004008;28;20003;-89
2022/10/03 16:01:18;;;;;;;;;;;;;;;4.06;100.00;100554.75;5004212;28;19922;-88
2022/10/03 16:03:47;;;;;;;;;;;;;;;4.06;100.00;100560.00;5018492;28;19975;-89
2022/10/03 16:06:18;;;;;;;;;;;;;;;3.98;100.00;100549.53;5002540;28;20433;-89
2022/10/03 16:09:12;;;;;;;;;;;;;;;4.08;100.00;100560.00;5021514;28;20040;-88
2022/10/03 16:12:08;;;;;;;;;;;;;;;4.07;100.00;100547.75;5003206;28;19921;-88
2022/10/03 16:14:42;;;;;;;;;;;;;;;4.11;100.00;100550.34;5004036;28;19921;-88
2022/10/03 16:17:23;;;;;;;;;;;;;;;4.07;100.00;100543.41;5020602;28;20276;-88
2022/10/03 16:19:54;;;;;;;;;;;;;;;4.11;100.00;100539.00;5014863;28;20012;-88
2022/10/03 16:22:23;;;;;;;;;;;;;;;4.08;100.00;100539.88;5018924;28;20440;-89
2022/10/03 16:25:02;;;;;;;;;;;;;;;4.08;100.00;100539.88;5001807;28;19925;-88
2022/10/03 16:27:31;;;;;;;;;;;;;;;4.05;100.00;100539.88;5019865;28;19921;-88
2022/10/03 16:30:09;;;;;;;;;;;;;;;4.04;100.00;100543.41;5003169;28;19922;-89
2022/10/03 16:32:51;;;;;;;;;;;;;;;4.05;100.00;100533.78;5019028;28;19924;-88
2022/10/03 16:35:26;;;;;;;;;;;;;;;4.00;100.00;100532.06;5020260;28;19928;-88
2022/10/03 16:37:54;;;;;;;;;;;;;;;3.98;100.00;100527.69;5003913;28;19931;-88
2022/10/03 16:40:24;;;;;;;;;;;;;;;3.97;100.00;100528.56;5002485;28;20307;-88
2022/10/03 16:42:51;;;;;;;;;;;;;;;4.04;100.00;100526.78;5002220;28;20015;-89
2022/10/03 16:45:22;;;;;;;;;;;;;;;4.01;100.00;100522.44;5001965;28;19921;-89
2022/10/03 16:50:23;;;;;;;;;;;;;;;4.02;100.00;100525.91;5026246;23;19924;-88
2022/10/03 16:50:37;;;;;;;;;;;;;;;4.00;100.00;100526.81;5019437;28;19926;-92
2022/10/03 16:53:10;;;;;;;;;;;;;;;3.93;100.00;100529.47;5021843;28;20021;-88
2022/10/03 16:55:44;;;;;;;;;;;;;;;3.99;100.00;100526.81;5019475;28;19925;-88
2022/10/03 16:58:21;;;;;;;;;;;;;;;3.95;100.00;100530.31;5019408;28;19921;-88
2022/10/03 17:01:16;;;;;;;;;;;;;;;3.98;100.00;100522.44;5003716;28;19917;-88
2022/10/03 17:03:46;;;;;;;;;;;;;;;3.93;100.00;100511.97;4950748;28;19934;-90
2022/10/03 17:06:20;;;;;;;;;;;;;;;3.94;100.00;100510.22;5001774;28;20037;-88
2022/10/03 17:08:50;;;;;;;;;;;;;;;3.96;100.00;100498.84;5021769;28;20418;-88
2022/10/03 17:11:31;;;;;;;;;;;;;;;3.94;100.00;100507.59;5006297;28;20360;-90
2022/10/03 17:17:04;;;;;;;;;;;;;;;3.91;100.00;100516.34;5022292;28;19930;-88
2022/10/03 17:19:30;;;;;;;;;;;;;;;3.93;100.00;100518.97;5005159;28;20398;-88
2022/10/03 17:22:00;;;;;;;;;;;;;;;3.92;100.00;100514.59;5022186;28;19967;-88
2022/10/03 17:24:49;;;;;;;;;;;;;;;3.95;100.00;100506.72;5021683;28;19921;-88
2022/10/03 17:27:18;;;;;;;;;;;;;;;3.98;100.00;100506.72;4997754;28;20396;-88
2022/10/03 17:29:46;;;;;;;;;;;;;;;3.93;100.00;100511.09;5025800;28;19921;-88
2022/10/03 17:32:20;;;;;;;;;;;;;;;3.93;100.00;100517.22;5002596;28;20304;-88
2022/10/03 17:34:52;;;;;;;;;;;;;;;3.92;100.00;100522.47;5004983;28;19921;-89
2022/10/03 17:37:36;;;;;;;;;;;;;;;3.92;100.00;100517.22;5020384;28;19928;-89
2022/10/03 17:40:02;;;;;;;;;;;;;;;3.88;100.00;100510.22;5024693;28;19921;-88
2022/10/03 17:43:04;;;;;;;;;;;;;;;3.83;100.00;100512.91;5005516;28;20446;-89
2022/10/03 17:45:38;;;;;;;;;;;;;;;3.88;100.00;100510.22;5006569;28;19921;-90
2022/10/03 17:48:11;;;;;;;;;;;;;;;3.91;100.00;100502.34;5006227;28;19993;-88
2022/10/03 17:50:53;;;;;;;;;;;;;;;3.92;100.00;100504.97;5019978;28;19922;-88
2022/10/03 17:53:21;;;;;;;;;;;;;;;3.91;100.00;100505.88;5006618;28;19921;-88
2022/10/03 17:56:19;;;;;;;;;;;;;;;3.94;100.00;100500.63;5024455;28;19971;-89
2022/10/03 17:58:54;;;;;;;;;;;;;;;3.92;100.00;100491.00;5014354;28;19925;-89
2022/10/03 18:01:23;;;;;;;;;;;;;;;3.90;100.00;100492.75;5022002;28;19944;-89
2022/10/03 18:06:56;;;;;;;;;;;;;;;3.93;100.00;100498.00;5019359;28;19932;-88
2022/10/03 18:09:30;;;;;;;;;;;;;;;4.02;100.00;100495.34;5020533;28;19921;-89
2022/10/03 18:12:02;;;;;;;;;;;;;;;4.02;100.00;100495.34;5019213;28;19925;-90
2022/10/03 18:17:34;;;;;;;;;;;;;;;4.02;100.00;100503.22;5023852;28;19932;-89
2022/10/03 18:20:12;;;;;;;;;;;;;;;4.06;100.00;100494.44;5003281;28;19925;-96
2022/10/03 18:22:40;;;;;;;;;;;;;;;4.08;100.00;100503.16;5020566;28;20479;-88
2022/10/03 18:28:07;;;;;;;;;;;;;;;4.07;100.00;100498.81;5020357;28;19932;-89
2022/10/03 18:30:35;;;;;;;;;;;;;;;4.04;100.00;100490.94;5020505;28;20093;-89
2022/10/03 18:33:03;;;;;;;;;;;;;;;4.07;100.00;100483.06;5022915;28;19928;-89
2022/10/03 18:35:32;;;;;;;;;;;;;;;4.07;100.00;100480.44;5020778;28;19975;-87
2022/10/03 18:38:04;;;;;;;;;;;;;;;4.16;100.00;100484.75;5017902;28;19936;-89
2022/10/03 18:40:32;;;;;;;;;;;;;;;4.08;100.00;100481.31;5022050;28;20003;-89
2022/10/03 18:44:00;;;;;;;;;;;;;;;4.04;100.00;100476.94;4999257;28;19921;-88
2022/10/03 18:46:19;;;;;;;;;;;;;;;3.96;100.00;100472.63;4988202;28;20376;-89
2022/10/03 18:48:56;;;;;;;;;;;;;;;3.96;100.00;100477.88;5010641;23;20001;-89
2022/10/03 18:51:40;;;;;;;;;;;;;;;4.10;100.00;100471.69;4975637;28;19957;-89
2022/10/03 18:54:21;;;;;;;;;;;;;;;4.19;100.00;100477.72;4992650;28;19928;-90
2022/10/03 18:57:00;;;;;;;;;;;;;;;4.06;100.00;100462.97;4981650;28;19921;-90
2022/10/03 18:59:42;;;;;;;;;;;;;;;4.06;100.00;100472.59;4988697;28;20299;-89
2022/10/03 19:02:15;;;;;;;;;;;;;;;4.03;100.00;100473.47;4978220;28;19932;-87
2022/10/03 19:04:49;;;;;;;;;;;;;;;4.02;100.00;100469.13;4981595;28;19922;-90
2022/10/03 19:07:44;;;;;;;;;;;;;;;;;;;;;
2022/10/03 19:10:15;;;;;;;;;;;;;;;4.12;100.00;100472.56;4993166;28;19929;-89
2022/10/03 19:12:46;;;;;;;;;;;;;;;4.18;100.00;100473.38;4967423;28;20033;-90
2022/10/03 19:15:14;;;;;;;;;;;;;;;4.18;100.00;100465.53;4971238;28;20290;-88
2022/10/03 19:17:39;;;;;;;;;;;;;;;4.08;100.00;100465.56;4962534;28;19933;-90
2022/10/03 19:20:19;;;;;;;;;;;;;;;4.13;100.00;100464.69;4965111;28;19918;-88
2022/10/03 19:22:54;;;;;;;;;;;;;;;4.16;100.00;100469.03;4964640;28;19922;-88
2022/10/03 19:25:20;;;;;;;;;;;;;;;4.10;100.00;100464.69;4970938;28;20005;-89
2022/10/03 19:27:59;;;;;;;;;;;;;;;4.16;100.00;100469.03;4972810;28;19965;-93
2022/10/03 19:30:26;;;;;;;;;;;;;;;4.15;100.00;100470.78;4962695;28;20024;-88
2022/10/03 19:32:53;;;;;;;;;;;;;;;4.04;100.00;100464.72;4963041;28;19969;-87
2022/10/03 19:35:20;;;;;;;;;;;;;;;4.00;100.00;100468.22;4969304;28;20197;-86
2022/10/03 19:38:06;;;;;;;;;;;;;;;4.12;100.00;100464.69;4956726;28;20013;-86
2022/10/03 19:41:08;;;;;;;;;;;;;;;4.19;100.00;100475.13;4976883;28;19932;-87
2022/10/03 19:43:39;;;;;;;;;;;;;;;4.13;100.00;100474.28;4963179;28;19929;-92
2022/10/03 19:46:28;;;;;;;;;;;;;;;4.05;100.00;100471.69;4962795;28;20382;-88
2022/10/03 19:48:59;;;;;;;;;;;;;;;4.21;100.00;100477.72;4957588;28;19933;-86
2022/10/03 19:51:28;;;;;;;;;;;;;;;4.08;100.00;100466.44;4973306;28;19925;-89
2022/10/03 19:53:56;;;;;;;;;;;;;;;4.13;100.00;100469.03;4972590;28;19918;-87
2022/10/03 19:56:23;;;;;;;;;;;;;;;4.19;100.00;100475.13;4961806;28;19929;-87
2022/10/03 19:59:05;;;;;;;;;;;;;;;4.21;100.00;100477.72;4971504;28;20377;-86
2022/10/03 20:01:49;;;;;;;;;;;;;;;4.31;100.00;100476.81;4963781;28;19918;-87
2022/10/03 20:04:17;;;;;;;;;;;;;;;4.13;100.00;100474.28;4971493;28;19922;-88
2022/10/03 20:06:48;;;;;;;;;;;;;;;4.06;100.00;100476.06;4972200;28;20401;-87
2022/10/03 20:09:23;;;;;;;;;;;;;;;4.19;100.00;100479.50;4972788;28;19926;-87
2022/10/03 20:11:56;;;;;;;;;;;;;;;4.08;100.00;100482.16;4978628;28;19965;-87
2022/10/03 20:14:26;;;;;;;;;;;;;;;4.21;100.00;100479.50;4971782;28;19972;-88
2022/10/03 20:16:55;;;;;;;;;;;;;;;4.26;100.00;100475.09;4961939;28;19930;-89
2022/10/03 20:19:25;;;;;;;;;;;;;;;4.16;100.00;100472.53;4960834;28;20009;-88
2022/10/03 20:21:57;;;;;;;;;;;;;;;4.12;100.00;100470.81;4971186;28;19918;-87
2022/10/03 20:24:30;;;;;;;;;;;;;;;4.25;100.00;100471.59;4961720;28;19925;-87
2022/10/03 20:27:04;;;;;;;;;;;;;;;4.17;100.00;100479.50;4961876;28;19992;-88
2022/10/03 20:29:34;;;;;;;;;;;;;;;4.28;100.00;100473.34;4971867;28;19925;-87
2022/10/03 20:32:03;;;;;;;;;;;;;;;4.25;100.00;100473.34;4959985;28;19926;-88
2022/10/03 20:34:29;;;;;;;;;;;;;;;4.11;100.00;100463.78;4972489;28;20425;-86
2022/10/03 20:37:01;;;;;;;;;;;;;;;4.07;100.00;100453.31;4961405;28;19956;-88
2022/10/03 20:39:34;;;;;;;;;;;;;;;4.25;100.00;100463.72;4973149;28;19933;-88
2022/10/03 20:42:01;;;;;;;;;;;;;;;4.23;100.00;100475.09;4972001;28;19926;-86
2022/10/03 20:44:33;;;;;;;;;;;;;;;4.30;100.00;100476.81;4973561;28;19918;-88
2022/10/03 20:47:17;;;;;;;;;;;;;;;4.19;100.00;100475.13;4964351;28;19929;-88
2022/10/03 20:49:54;;;;;;;;;;;;;;;4.17;100.00;100470.78;4966806;28;19922;-88
2022/10/03 20:52:20;;;;;;;;;;;;;;;4.16;100.00;100464.66;4964625;28;19918;-88
2022/10/03 20:54:59;;;;;;;;;;;;;;;4.28;100.00;100475.97;4960892;28;19926;-88
2022/10/03 20:57:24;;;;;;;;;;;;;;;4.23;100.00;100468.13;4975323;28;20359;-88
2022/10/03 21:00:07;;;;;;;;;;;;;;;4.19;100.00;100464.63;4965418;28;20340;-87
2022/10/03 21:02:41;;;;;;;;;;;;;;;4.27;100.00;100461.94;4976169;28;20020;-88
2022/10/03 21:05:13;;;;;;;;;;;;;;;4.11;100.00;100474.28;4982604;28;19933;-88
2022/10/03 21:07:45;;;;;;;;;;;;;;;4.11;100.00;100460.31;4964530;28;19923;-88
2022/10/03 21:10:18;;;;;;;;;;;;;;;4.32;100.00;100464.56;4949311;28;19932;-87
2022/10/03 21:12:49;;;;;;;;;;;;;;;4.19;100.00;100476.88;4958829;28;19946;-88
2022/10/03 21:15:17;;;;;;;;;;;;;;;4.19;100.00;100469.88;4974835;28;19928;-87
2022/10/03 21:17:44;;;;;;;;;;;;;;;4.11;100.00;100470.81;4975815;28;19922;-88
2022/10/03 21:20:13;;;;;;;;;;;;;;;4.18;100.00;100477.78;4975327;28;19929;-87
2022/10/03 21:22:40;;;;;;;;;;;;;;;4.12;100.00;100464.69;4972105;28;20031;-88
2022/10/03 21:25:16;;;;;;;;;;;;;;;4.18;100.00;100476.00;4968328;28;20364;-91
2022/10/03 21:27:47;;;;;;;;;;;;;;;4.16;100.00;100463.78;4976006;28;19945;-88
2022/10/03 21:30:17;;;;;;;;;;;;;;;4.17;100.00;100470.78;4965075;28;19922;-88
2022/10/03 21:32:57;;;;;;;;;;;;;;;4.14;100.00;100466.41;4949148;28;19922;-88
2022/10/03 21:35:30;;;;;;;;;;;;;;;4.07;100.00;100461.19;4973483;28;19929;-89
2022/10/03 21:38:11;;;;;;;;;;;;;;;4.08;100.00;100455.09;4979074;28;19980;-87
2022/10/03 21:40:55;;;;;;;;;;;;;;;4.26;100.00;100451.47;4976144;28;19918;-88
2022/10/03 21:43:39;;;;;;;;;;;;;;;4.18;100.00;100448.91;4974603;28;19922;-88
2022/10/03 21:46:13;;;;;;;;;;;;;;;4.14;100.00;100448.03;4974210;28;20017;-87
2022/10/03 21:48:39;;;;;;;;;;;;;;;4.14;100.00;100449.81;4975782;28;19958;-88
2022/10/03 21:51:15;;;;;;;;;;;;;;;4.09;100.00;100447.22;4978853;28;19968;-88
2022/10/03 21:53:49;;;;;;;;;;;;;;;4.05;100.00;100455.09;4976744;28;19985;-88
2022/10/03 21:56:14;;;;;;;;;;;;;;;4.09;100.00;100448.97;4963336;28;19922;-88
2022/10/03 21:58:58;;;;;;;;;;;;;;;4.10;100.00;100438.47;4973299;28;19933;-88
2022/10/03 22:01:32;;;;;;;;;;;;;;;4.21;100.00;100427.03;4964893;28;20388;-89
2022/10/03 22:04:06;;;;;;;;;;;;;;;4.17;100.00;100427.03;4975134;28;19969;-89
2022/10/03 22:06:35;;;;;;;;;;;;;;;4.21;100.00;100429.66;4963534;28;19926;-88
2022/10/03 22:09:04;;;;;;;;;;;;;;;4.11;100.00;100429.69;4970080;28;19934;-88
2022/10/03 22:11:42;;;;;;;;;;;;;;;4.18;100.00;100436.66;4962841;28;19978;-89
2022/10/03 22:14:28;;;;;;;;;;;;;;;4.20;100.00;100436.66;4982619;28;19922;-89
2022/10/03 22:17:12;;;;;;;;;;;;;;;4.19;100.00;100427.91;4964593;28;19923;-89
2022/10/03 22:19:37;;;;;;;;;;;;;;;4.10;100.00;100432.34;4966056;28;19922;-89
2022/10/03 22:22:02;;;;;;;;;;;;;;;4.04;100.00;100433.25;4978197;28;20420;-89
2022/10/03 22:24:43;;;;;;;;;;;;;;;4.03;100.00;100431.50;4964410;28;19929;-88
2022/10/03 22:27:14;;;;;;;;;;;;;;;4.07;100.00;100428.00;4981139;28;19922;-92
2022/10/03 22:29:58;;;;;;;;;;;;;;;4.16;100.00;100430.56;4980302;28;20490;-93
2022/10/03 22:32:29;;;;;;;;;;;;;;;4.24;100.00;100425.25;4980014;28;20024;-93
2022/10/03 22:35:00;;;;;;;;;;;;;;;4.27;100.00;100413.88;4983830;28;19925;-92
2022/10/03 22:37:26;;;;;;;;;;;;;;;4.09;100.00;100415.72;4965720;28;20384;-95
2022/10/03 22:39:51;;;;;;;;;;;;;;;4.13;100.00;100414.84;4967085;28;19922;-90
2022/10/03 22:42:17;;;;;;;;;;;;;;;4.23;100.00;100423.53;4967965;28;19957;-88
2022/10/03 22:44:46;;;;;;;;;;;;;;;4.23;100.00;100417.38;4963700;28;19918;-90
2022/10/03 22:47:13;;;;;;;;;;;;;;;4.13;100.00;100413.94;4980841;28;20005;-90